createdAt,value
2023-02-07T00:00:31.390Z,27.20
2023-02-07T00:03:34.029Z,26.95
2023-02-07T00:06:36.881Z,32.45
2023-02-07T00:09:39.352Z,27.98
2023-02-07T00:12:41.663Z,22.33
2023-02-07T00:15:44.117Z,24.73
2023-02-07T00:18:46.764Z,27.65
2023-02-07T00:21:49.226Z,23.60
2023-02-07T00:24:51.744Z,27.10
2023-02-07T00:27:54.349Z,24.80
2023-02-07T00:31:11.830Z,32.37
2023-02-07T00:34:15.333Z,27.67
2023-02-07T00:37:17.600Z,21.65
2023-02-07T00:40:20.200Z,31.97
2023-02-07T00:43:29.649Z,27.45
2023-02-07T00:46:33.457Z,31.08
2023-02-07T00:49:35.730Z,20.70
2023-02-07T00:52:38.345Z,25.85
2023-02-07T00:55:40.577Z,30.08
2023-02-07T00:58:43.609Z,35.17
2023-02-07T01:01:45.886Z,22.23
2023-02-07T01:04:48.647Z,26.55
2023-02-07T01:07:51.052Z,27.92
2023-02-07T01:10:53.560Z,25.53
2023-02-07T01:13:56.286Z,22.33
2023-02-07T01:16:58.824Z,24.45
2023-02-07T01:20:01.247Z,28.12
2023-02-07T01:23:06.135Z,24.17
2023-02-07T01:26:10.642Z,29.60
2023-02-07T01:29:16.552Z,28.12
2023-02-07T01:32:19.645Z,27.05
2023-02-07T01:35:23.287Z,22.75
2023-02-07T01:38:26.547Z,24.77
2023-02-07T01:41:31.526Z,20.12
2023-02-07T01:44:36.716Z,26.33
2023-02-07T01:47:40.183Z,27.15
2023-02-07T01:50:48.182Z,26.33
2023-02-07T01:53:56.276Z,30.02
2023-02-07T01:57:06.462Z,21.65
2023-02-07T02:00:15.180Z,30.30
2023-02-07T02:03:17.671Z,21.92
2023-02-07T02:06:24.672Z,20.48
2023-02-07T02:09:28.643Z,23.80
2023-02-07T02:12:36.740Z,21.55
2023-02-07T02:16:06.539Z,20.85
2023-02-07T02:19:38.662Z,24.63
2023-02-07T02:23:01.385Z,23.42
2023-02-07T02:26:07.194Z,30.90
2023-02-07T02:29:40.485Z,24.00
2023-02-07T02:33:01.167Z,25.05
2023-02-07T02:36:22.678Z,29.95
2023-02-07T02:39:34.486Z,24.83
2023-02-07T02:42:46.483Z,26.60
2023-02-07T02:45:55.713Z,21.87
2023-02-07T02:49:02.199Z,23.02
2023-02-07T02:52:05.329Z,24.23
2023-02-07T02:55:08.707Z,18.80
2023-02-07T02:58:20.175Z,24.70
2023-02-07T03:01:54.465Z,19.12
2023-02-07T03:05:15.264Z,26.30
2023-02-07T03:08:28.763Z,27.33
2023-02-07T03:11:41.161Z,23.52
2023-02-07T03:15:03.409Z,21.83
2023-02-07T03:18:19.037Z,26.45
2023-02-07T03:21:28.519Z,23.02
2023-02-07T03:24:33.913Z,23.12
2023-02-07T03:27:38.658Z,21.58
2023-02-07T03:30:44.140Z,26.10
2023-02-07T03:33:51.565Z,22.40
2023-02-07T03:36:56.969Z,23.90
2023-02-07T03:40:01.160Z,30.25
2023-02-07T03:43:11.081Z,30.52
2023-02-07T03:46:15.546Z,27.73
2023-02-07T03:49:18.720Z,25.15
2023-02-07T03:55:25.073Z,22.65
2023-02-07T03:58:28.455Z,26.95
2023-02-07T04:01:32.984Z,25.45
2023-02-07T04:04:37.466Z,25.20
2023-02-07T04:07:40.713Z,27.37
2023-02-07T04:13:46.619Z,22.65
2023-02-07T04:16:50.178Z,24.63
2023-02-07T04:19:53.530Z,22.85
2023-02-07T04:22:56.753Z,21.62
2023-02-07T04:25:59.372Z,21.77
2023-02-07T04:29:02.720Z,21.85
2023-02-07T04:32:14.036Z,21.67
2023-02-07T04:35:39.993Z,20.55
2023-02-07T04:42:23.064Z,24.45
2023-02-07T04:45:47.725Z,27.02
2023-02-07T04:49:34.013Z,30.05
2023-02-07T04:53:02.008Z,19.62
2023-02-07T05:00:34.613Z,21.20
2023-02-07T05:03:45.224Z,25.27
2023-02-07T05:06:49.361Z,20.12
2023-02-07T05:09:53.548Z,22.35
2023-02-07T05:15:58.037Z,22.33
2023-02-07T05:19:00.556Z,20.65
2023-02-07T05:22:03.121Z,21.48
2023-02-07T05:25:06.154Z,23.33
2023-02-07T05:28:09.885Z,22.85
2023-02-07T05:31:12.222Z,22.37
2023-02-07T05:34:14.758Z,23.70
2023-02-07T05:37:16.987Z,19.65
2023-02-07T05:40:20.632Z,20.70
2023-02-07T05:46:25.283Z,21.98
2023-02-07T05:52:31.146Z,26.00
2023-02-07T05:55:34.377Z,21.23
2023-02-07T05:58:39.861Z,26.52
2023-02-07T06:01:42.223Z,26.75
2023-02-07T06:04:44.861Z,23.62
2023-02-07T06:07:47.824Z,26.90
2023-02-07T06:10:50.401Z,25.12
2023-02-07T06:13:54.571Z,25.98
2023-02-07T06:16:57.532Z,22.40
2023-02-07T06:20:00.078Z,27.25
2023-02-07T06:23:02.921Z,23.38
2023-02-07T06:26:05.349Z,26.37
2023-02-07T06:29:07.986Z,23.95
2023-02-07T06:32:11.085Z,32.10
2023-02-07T06:38:18.103Z,23.33
2023-02-07T06:41:21.626Z,25.35
2023-02-07T06:44:23.927Z,20.27
2023-02-07T06:47:26.422Z,23.90
2023-02-07T06:50:29.260Z,23.67
2023-02-07T06:53:32.492Z,24.17
2023-02-07T06:56:35.485Z,25.33
2023-02-07T06:59:46.361Z,21.15
2023-02-07T07:02:50.735Z,28.12
2023-02-07T07:09:41.221Z,23.00
2023-02-07T07:13:47.573Z,31.10
2023-02-07T07:17:03.373Z,23.45
2023-02-07T07:24:04.770Z,23.48
2023-02-07T07:27:07.472Z,20.60
2023-02-07T07:30:12.068Z,23.35
2023-02-07T07:33:15.552Z,22.30
2023-02-07T07:36:22.569Z,20.30
2023-02-07T07:39:25.588Z,24.25
2023-02-07T07:42:28.816Z,30.02
2023-02-07T07:45:33.654Z,25.98
2023-02-07T07:48:37.812Z,25.85
2023-02-07T07:51:40.994Z,24.87
2023-02-07T07:54:44.773Z,23.48
2023-02-07T07:57:49.550Z,23.35
2023-02-07T08:00:53.353Z,29.67
2023-02-07T08:03:55.889Z,19.70
2023-02-07T08:07:00.420Z,27.05
2023-02-07T08:10:06.286Z,28.65
2023-02-07T08:13:09.974Z,30.67
2023-02-07T08:16:12.570Z,33.80
2023-02-07T08:19:15.174Z,34.00
2023-02-07T08:22:17.715Z,42.00
2023-02-07T08:25:19.971Z,30.12
2023-02-07T08:28:22.720Z,34.50
2023-02-07T08:34:29.090Z,33.35
2023-02-07T08:37:31.423Z,30.50
2023-02-07T08:40:34.671Z,30.40
2023-02-07T08:43:38.157Z,38.55
2023-02-07T08:46:40.677Z,41.45
2023-02-07T08:49:43.110Z,37.90
2023-02-07T08:52:46.145Z,44.30
2023-02-07T08:55:48.431Z,36.22
2023-02-07T08:58:50.941Z,28.13
2023-02-07T09:01:53.212Z,34.55
2023-02-07T09:04:55.925Z,37.07
2023-02-07T09:07:58.234Z,39.03
2023-02-07T09:11:00.858Z,37.92
2023-02-07T09:14:03.258Z,39.53
2023-02-07T09:17:07.514Z,29.73
2023-02-07T09:20:10.836Z,30.85
2023-02-07T09:26:23.395Z,34.40
2023-02-07T09:29:25.873Z,33.63
2023-02-07T09:32:28.297Z,35.50
2023-02-07T09:35:30.886Z,34.30
2023-02-07T09:38:33.123Z,32.08
2023-02-07T09:41:54.519Z,36.15
2023-02-07T09:45:04.880Z,33.15
2023-02-07T09:48:23.967Z,39.45
2023-02-07T09:51:27.433Z,30.33
2023-02-07T09:54:37.889Z,26.42
2023-02-07T09:57:51.643Z,30.90
2023-02-07T10:01:22.946Z,32.97
2023-02-07T10:04:48.266Z,36.00
2023-02-07T10:07:51.500Z,32.50
2023-02-07T10:11:03.145Z,26.80
2023-02-07T10:14:34.208Z,27.08
2023-02-07T10:17:42.774Z,28.05
2023-02-07T10:21:20.002Z,26.70
2023-02-07T10:24:37.808Z,28.45
2023-02-07T10:28:03.356Z,22.98
2023-02-07T10:31:16.410Z,29.50
2023-02-07T10:34:31.583Z,26.08
2023-02-07T10:37:38.052Z,26.70
2023-02-07T10:40:53.598Z,24.45
2023-02-07T10:43:56.293Z,36.53
2023-02-07T10:47:01.555Z,22.52
2023-02-07T10:50:12.031Z,23.30
2023-02-07T10:53:54.700Z,28.02
2023-02-07T10:57:02.541Z,22.27
2023-02-07T11:00:21.417Z,21.67
2023-02-07T11:03:25.554Z,27.85
2023-02-07T11:06:32.982Z,28.65
2023-02-07T11:09:38.166Z,29.45
2023-02-07T11:12:54.618Z,24.12
2023-02-07T11:16:06.093Z,23.95
2023-02-07T11:19:09.537Z,23.48
2023-02-07T11:22:21.697Z,25.55
2023-02-07T11:25:35.070Z,26.12
2023-02-07T11:28:37.858Z,23.95
2023-02-07T11:31:42.918Z,22.00
2023-02-07T11:34:58.281Z,23.58
2023-02-07T11:38:12.369Z,24.25
2023-02-07T11:41:23.588Z,25.23
2023-02-07T11:44:29.670Z,24.05
2023-02-07T11:47:35.611Z,21.40
2023-02-07T11:50:41.022Z,18.98
2023-02-07T11:53:51.142Z,21.95
2023-02-07T11:57:05.239Z,18.12
2023-02-07T12:00:23.080Z,17.70
2023-02-07T12:03:27.985Z,19.67
2023-02-07T12:06:52.617Z,19.08
2023-02-07T12:09:59.248Z,19.73
2023-02-07T12:13:14.605Z,18.67
2023-02-07T12:16:24.588Z,19.10
2023-02-07T12:19:37.440Z,21.25
2023-02-07T12:23:01.023Z,21.58
2023-02-07T12:26:15.362Z,18.85
2023-02-07T12:30:00.203Z,21.40
2023-02-07T12:33:20.961Z,20.08
2023-02-07T12:36:42.087Z,21.23
2023-02-07T12:39:54.638Z,22.02
2023-02-07T12:43:07.199Z,22.90
2023-02-07T12:46:41.328Z,21.30
2023-02-07T12:50:21.789Z,22.73
2023-02-07T12:53:32.674Z,29.25
2023-02-07T12:57:05.192Z,22.13
2023-02-07T13:00:26.538Z,22.55
2023-02-07T13:03:50.622Z,26.05
2023-02-07T13:07:14.834Z,22.13
2023-02-07T13:10:31.862Z,23.75
2023-02-07T13:13:59.331Z,23.90
2023-02-07T13:17:39.380Z,23.17
2023-02-07T13:21:04.708Z,23.83
2023-02-07T13:24:08.669Z,24.58
2023-02-07T13:27:20.565Z,26.08
2023-02-07T13:30:24.495Z,29.60
2023-02-07T13:33:41.906Z,29.77
2023-02-07T13:36:46.784Z,22.17
2023-02-07T13:40:05.953Z,22.17
2023-02-07T13:43:27.774Z,22.35
2023-02-07T13:46:55.774Z,21.80
2023-02-07T13:50:00.956Z,21.98
2023-02-07T13:53:20.701Z,22.48
2023-02-07T13:56:53.441Z,21.23
2023-02-07T14:00:17.788Z,19.12
2023-02-07T14:03:30.229Z,21.37
2023-02-07T14:06:53.023Z,23.27
2023-02-07T14:10:00.416Z,22.65
2023-02-07T14:13:04.148Z,21.52
2023-02-07T14:16:09.667Z,22.83
2023-02-07T14:19:13.828Z,21.48
2023-02-07T14:25:38.899Z,22.85
2023-02-07T14:28:43.290Z,18.37
2023-02-07T14:32:15.021Z,20.23
2023-02-07T14:35:18.206Z,20.48
2023-02-07T14:38:25.542Z,21.90
2023-02-07T14:41:32.217Z,18.75
2023-02-07T14:44:37.616Z,20.62
2023-02-07T14:47:39.877Z,18.10
2023-02-07T14:50:52.627Z,23.67
2023-02-07T14:54:08.161Z,24.10
2023-02-07T14:57:33.578Z,20.10
2023-02-07T15:00:50.954Z,18.95
2023-02-07T15:04:05.689Z,19.00
2023-02-07T15:07:13.354Z,20.98
2023-02-07T15:10:24.341Z,21.75
2023-02-07T15:13:30.509Z,16.55
2023-02-07T15:16:38.451Z,19.98
2023-02-07T15:19:42.416Z,20.10
2023-02-07T15:22:52.886Z,23.85
2023-02-07T15:25:56.421Z,21.40
2023-02-07T15:29:06.704Z,24.83
2023-02-07T15:32:42.221Z,23.85
2023-02-07T15:35:45.479Z,18.58
2023-02-07T15:38:47.813Z,20.85
2023-02-07T15:41:53.062Z,22.90
2023-02-07T15:44:57.565Z,22.95
2023-02-07T15:48:03.772Z,38.15
2023-02-07T15:51:06.111Z,23.70
2023-02-07T15:54:16.255Z,21.10
2023-02-07T15:57:29.800Z,27.42
2023-02-07T16:00:39.020Z,22.10
2023-02-07T16:03:44.005Z,22.02
2023-02-07T16:07:11.973Z,30.98
2023-02-07T16:10:23.985Z,21.92
2023-02-07T16:13:26.220Z,21.62
2023-02-07T16:16:35.651Z,20.98
2023-02-07T16:19:45.914Z,24.37
2023-02-07T16:22:49.173Z,26.05
2023-02-07T16:25:51.380Z,22.30
2023-02-07T16:28:53.983Z,23.83
2023-02-07T16:31:56.409Z,26.00
2023-02-07T16:35:00.350Z,29.87
2023-02-07T16:38:02.893Z,23.38
2023-02-07T16:41:05.416Z,23.97
2023-02-07T16:44:12.178Z,28.08
2023-02-07T16:47:16.025Z,25.50
2023-02-07T16:53:27.982Z,29.73
2023-02-07T16:56:30.143Z,33.65
2023-02-07T16:59:32.937Z,32.13
2023-02-07T17:02:35.281Z,29.55
2023-02-07T17:05:39.122Z,27.60
2023-02-07T17:11:44.135Z,30.17
2023-02-07T17:14:46.554Z,28.00
2023-02-07T17:17:49.822Z,28.50
2023-02-07T17:20:52.243Z,35.97
2023-02-07T17:23:54.710Z,25.90
2023-02-07T17:26:58.130Z,31.40
2023-02-07T17:30:00.615Z,31.40
2023-02-07T17:33:02.824Z,34.42
2023-02-07T17:36:06.281Z,30.40
2023-02-07T17:39:12.624Z,33.67
2023-02-07T17:42:15.043Z,31.48
2023-02-07T17:45:17.370Z,32.40
2023-02-07T17:48:19.828Z,36.10
2023-02-07T17:51:26.484Z,35.88
2023-02-07T17:54:29.004Z,33.00
2023-02-07T17:57:31.173Z,38.00
2023-02-07T18:00:39.778Z,31.92
2023-02-07T18:03:42.575Z,38.88
2023-02-07T18:06:44.717Z,33.20
2023-02-07T18:09:47.257Z,31.85
2023-02-07T18:12:49.565Z,36.70
2023-02-07T18:15:52.405Z,30.80
2023-02-07T18:18:56.547Z,35.10
2023-02-07T18:21:59.362Z,38.25
2023-02-07T18:25:01.838Z,35.67
2023-02-07T18:28:04.653Z,31.37
2023-02-07T18:31:17.234Z,40.72
2023-02-07T18:34:20.255Z,31.55
2023-02-07T18:37:23.016Z,39.73
2023-02-07T18:40:25.720Z,34.35
2023-02-07T18:43:29.454Z,30.65
2023-02-07T18:46:33.055Z,36.17
2023-02-07T18:49:36.345Z,31.83
2023-02-07T18:52:39.720Z,28.58
2023-02-07T18:55:42.564Z,39.58
2023-02-07T18:58:49.235Z,26.73
2023-02-07T19:01:53.593Z,35.28
2023-02-07T19:04:56.486Z,29.70
2023-02-07T19:07:58.959Z,34.45
2023-02-07T19:11:03.990Z,35.63
2023-02-07T19:14:28.407Z,33.90
2023-02-07T19:17:31.366Z,35.83
2023-02-07T19:20:33.546Z,36.43
2023-02-07T19:23:36.196Z,28.50
2023-02-07T19:26:39.031Z,34.85
2023-02-07T19:29:41.594Z,43.13
2023-02-07T19:32:43.812Z,36.47
2023-02-07T19:35:46.336Z,29.83
2023-02-07T19:38:49.296Z,32.70
2023-02-07T19:41:52.200Z,36.75
2023-02-07T19:44:54.407Z,32.73
2023-02-07T19:47:56.867Z,32.53
2023-02-07T19:51:01.141Z,32.53
2023-02-07T19:54:03.971Z,34.88
2023-02-07T19:57:06.661Z,40.08
2023-02-07T20:00:10.727Z,37.30
2023-02-07T20:03:13.402Z,39.40
2023-02-07T20:06:16.216Z,41.08
2023-02-07T20:09:19.149Z,40.67
2023-02-07T20:12:21.470Z,35.93
2023-02-07T20:15:23.938Z,34.63
2023-02-07T20:18:26.886Z,37.83
2023-02-07T20:21:31.602Z,41.00
2023-02-07T20:24:33.952Z,32.78
2023-02-07T20:27:36.785Z,36.73
2023-02-07T20:30:44.436Z,30.77
2023-02-07T20:33:47.229Z,40.72
2023-02-07T20:36:49.402Z,28.27
2023-02-07T20:39:51.943Z,37.47
2023-02-07T20:42:54.304Z,31.08
2023-02-07T20:46:08.055Z,39.27
2023-02-07T20:49:19.900Z,40.15
2023-02-07T20:52:22.326Z,37.67
2023-02-07T20:55:24.914Z,40.47
2023-02-07T20:58:27.734Z,37.05
2023-02-07T21:01:31.992Z,34.97
2023-02-07T21:04:36.384Z,42.50
2023-02-07T21:07:38.751Z,37.50
2023-02-07T21:10:41.814Z,40.30
2023-02-07T21:13:45.868Z,36.88
2023-02-07T21:16:49.882Z,35.47
2023-02-07T21:19:52.393Z,33.75
2023-02-07T21:22:54.861Z,39.10
2023-02-07T21:26:06.075Z,36.65
2023-02-07T21:29:10.300Z,38.25
2023-02-07T21:32:12.786Z,35.97
2023-02-07T21:35:15.308Z,34.93
2023-02-07T21:38:17.500Z,29.63
2023-02-07T21:41:22.893Z,32.57
2023-02-07T21:44:25.201Z,34.28
2023-02-07T21:47:28.593Z,31.23
2023-02-07T21:50:30.744Z,33.72
2023-02-07T21:53:34.159Z,37.37
2023-02-07T21:56:39.081Z,37.03
2023-02-07T21:59:42.544Z,40.97
2023-02-07T22:02:44.838Z,42.05
2023-02-07T22:05:50.723Z,36.73
2023-02-07T22:08:57.772Z,35.83
2023-02-07T22:12:00.308Z,41.10
2023-02-07T22:15:02.487Z,36.08
2023-02-07T22:18:05.335Z,38.50
2023-02-07T22:21:11.308Z,35.87
2023-02-07T22:24:16.069Z,34.30
2023-02-07T22:27:18.287Z,42.80
2023-02-07T22:30:20.801Z,38.73
2023-02-07T22:33:23.020Z,47.17
2023-02-07T22:36:27.830Z,38.00
2023-02-07T22:39:30.007Z,45.33
2023-02-07T22:42:34.216Z,41.15
2023-02-07T22:48:39.203Z,35.40
2023-02-07T22:51:41.462Z,42.13
2023-02-07T22:54:44.119Z,36.37
2023-02-07T22:57:50.551Z,43.70
2023-02-07T23:00:53.123Z,40.65
2023-02-07T23:03:56.308Z,39.67
2023-02-07T23:10:01.038Z,37.17
2023-02-07T23:13:03.699Z,42.30
2023-02-07T23:16:09.870Z,38.95
2023-02-07T23:19:17.977Z,46.03
2023-02-07T23:22:20.597Z,44.17
2023-02-07T23:25:23.172Z,44.80
2023-02-07T23:28:25.614Z,39.45
2023-02-07T23:31:28.518Z,51.53
2023-02-07T23:34:31.648Z,44.03
2023-02-07T23:37:34.488Z,38.15
2023-02-07T23:40:37.090Z,40.12
2023-02-07T23:43:39.869Z,38.80
2023-02-07T23:46:43.080Z,35.90
2023-02-07T23:52:48.057Z,38.28
2023-02-07T23:55:53.024Z,36.58
2023-02-07T23:58:55.280Z,43.47
